createdAt,value
2023-01-19T00:00:46.038Z,1179.00
2023-01-19T00:01:46.029Z,1180.00
2023-01-19T00:02:46.081Z,1178.00
2023-01-19T00:03:46.005Z,1176.00
2023-01-19T00:04:46.008Z,1180.00
2023-01-19T00:05:46.099Z,1181.00
2023-01-19T00:06:45.991Z,1183.00
2023-01-19T00:07:45.987Z,1193.00
2023-01-19T00:08:45.981Z,1185.00
2023-01-19T00:09:45.981Z,1190.00
2023-01-19T00:10:45.965Z,1175.00
2023-01-19T00:11:45.961Z,1185.00
2023-01-19T00:12:45.951Z,1182.00
2023-01-19T00:13:45.944Z,1193.00
2023-01-19T00:14:45.930Z,1183.00
2023-01-19T00:15:45.924Z,1169.00
2023-01-19T00:16:45.931Z,1189.00
2023-01-19T00:17:45.915Z,1184.00
2023-01-19T00:18:45.906Z,1188.00
2023-01-19T00:19:45.909Z,1180.00
2023-01-19T00:20:45.907Z,1183.00
2023-01-19T00:21:45.904Z,1187.00
2023-01-19T00:22:45.902Z,1190.00
2023-01-19T00:23:45.893Z,1180.00
2023-01-19T00:24:45.896Z,1185.00
2023-01-19T00:25:45.894Z,1183.00
2023-01-19T00:26:45.891Z,1192.00
2023-01-19T00:27:45.877Z,1184.00
2023-01-19T00:28:45.872Z,1181.00
2023-01-19T00:29:45.865Z,1180.00
2023-01-19T00:30:45.859Z,1189.00
2023-01-19T00:31:45.889Z,1191.00
2023-01-19T00:32:45.840Z,1182.00
2023-01-19T00:33:45.838Z,1182.00
2023-01-19T00:34:45.827Z,1178.00
2023-01-19T00:35:45.822Z,1184.00
2023-01-19T00:36:45.826Z,1181.00
2023-01-19T00:37:45.815Z,1173.00
2023-01-19T00:38:45.825Z,1181.00
2023-01-19T00:39:45.804Z,1176.00
2023-01-19T00:40:45.798Z,1191.00
2023-01-19T00:41:45.823Z,1193.00
2023-01-19T00:42:45.797Z,1188.00
2023-01-19T00:43:45.791Z,1181.00
2023-01-19T00:44:45.799Z,1190.00
2023-01-19T00:45:45.794Z,1181.00
2023-01-19T00:46:45.776Z,1197.00
2023-01-19T00:47:45.775Z,1189.00
2023-01-19T00:48:45.774Z,1188.00
2023-01-19T00:49:45.763Z,1181.00
2023-01-19T00:50:45.765Z,1173.00
2023-01-19T00:51:45.786Z,1192.00
2023-01-19T01:13:45.735Z,1194.00
2023-01-19T03:34:45.073Z,1175.00
2023-01-19T03:35:45.049Z,1171.00
2023-01-19T03:36:45.048Z,1174.00
2023-01-19T03:37:45.050Z,1168.00
2023-01-19T03:38:45.036Z,1177.00
2023-01-19T03:39:45.027Z,1173.00
2023-01-19T03:40:45.021Z,1174.00
2023-01-19T03:41:45.030Z,1164.00
2023-01-19T03:42:44.985Z,1179.00
2023-01-19T03:43:45.014Z,1169.00
2023-01-19T03:44:45.009Z,1180.00
2023-01-19T03:45:44.981Z,1165.00
2023-01-19T03:46:44.999Z,1172.00
2023-01-19T03:47:44.965Z,1167.00
2023-01-19T03:48:44.995Z,1167.00
2023-01-19T03:49:44.930Z,1168.00
2023-01-19T03:50:44.935Z,1157.00
2023-01-19T03:51:44.927Z,1173.00
2023-01-19T03:52:44.948Z,1170.00
2023-01-19T03:53:44.927Z,1161.00
2023-01-19T03:54:44.952Z,1172.00
2023-01-19T03:55:44.928Z,1160.00
2023-01-19T03:56:44.869Z,1166.00
2023-01-19T03:57:44.874Z,1156.00
2023-01-19T03:58:44.871Z,1170.00
2023-01-19T03:59:44.847Z,1169.00
2023-01-19T04:00:44.847Z,1163.00
2023-01-19T04:01:45.016Z,1167.00
2023-01-19T04:02:44.922Z,1168.00
2023-01-19T04:03:44.813Z,1162.00
2023-01-19T04:04:44.857Z,1172.00
2023-01-19T04:05:44.821Z,1163.00
2023-01-19T04:06:44.823Z,1161.00
2023-01-19T04:07:44.810Z,1160.00
2023-01-19T04:08:44.840Z,1171.00
2023-01-19T04:09:44.805Z,1176.00
2023-01-19T04:10:44.793Z,1163.00
2023-01-19T04:11:44.781Z,1155.00
2023-01-19T04:12:44.781Z,1170.00
2023-01-19T04:13:44.769Z,1161.00
2023-01-19T04:14:44.786Z,1156.00
2023-01-19T04:15:44.780Z,1164.00
2023-01-19T04:16:44.754Z,1157.00
2023-01-19T04:17:44.752Z,1166.00
2023-01-19T04:18:44.743Z,1158.00
2023-01-19T04:19:44.726Z,1173.00
2023-01-19T04:20:44.726Z,1158.00
2023-01-19T04:21:44.715Z,1148.00
2023-01-19T04:22:44.721Z,1167.00
2023-01-19T04:23:44.714Z,1158.00
2023-01-19T04:24:44.703Z,1154.00
2023-01-19T04:25:44.686Z,1158.00
2023-01-19T04:26:44.691Z,1162.00
2023-01-19T04:27:44.670Z,1172.00
2023-01-19T04:28:44.680Z,1159.00
2023-01-19T04:29:44.664Z,1163.00
2023-01-19T04:30:44.657Z,1156.00
2023-01-19T04:31:44.655Z,1164.00
2023-01-19T04:32:44.647Z,1159.00
2023-01-19T04:33:44.646Z,1161.00
2023-01-19T04:34:44.623Z,1152.00
2023-01-19T04:35:44.624Z,1146.00
2023-01-19T04:36:44.623Z,1164.00
2023-01-19T04:37:44.620Z,1163.00
2023-01-19T04:38:44.600Z,1151.00
2023-01-19T04:39:44.611Z,1158.00
2023-01-19T04:40:44.595Z,1156.00
2023-01-19T04:41:44.595Z,1160.00
2023-01-19T04:42:44.593Z,1159.00
2023-01-19T04:43:44.576Z,1157.00
2023-01-19T04:44:44.582Z,1155.00
2023-01-19T04:45:44.568Z,1162.00
2023-01-19T04:46:44.614Z,1166.00
2023-01-19T04:47:44.547Z,1163.00
2023-01-19T04:48:44.557Z,1161.00
2023-01-19T04:49:44.548Z,1155.00
2023-01-19T04:50:44.538Z,1150.00
2023-01-19T04:51:44.529Z,1151.00
2023-01-19T04:52:44.532Z,1166.00
2023-01-19T04:53:44.520Z,1161.00
2023-01-19T04:54:44.516Z,1145.00
2023-01-19T04:55:44.516Z,1167.00
2023-01-19T04:56:44.503Z,1156.00
2023-01-19T04:57:44.496Z,1148.00
2023-01-19T04:58:44.490Z,1158.00
2023-01-19T04:59:44.468Z,1169.00
2023-01-19T05:00:44.473Z,1143.00
2023-01-19T05:01:44.474Z,1165.00
2023-01-19T05:02:44.468Z,1141.00
2023-01-19T05:03:44.447Z,1168.00
2023-01-19T05:04:44.449Z,1152.00
2023-01-19T05:05:44.417Z,1169.00
2023-01-19T05:06:44.412Z,1149.00
2023-01-19T05:07:44.397Z,1159.00
2023-01-19T05:08:45.442Z,1155.00
2023-01-19T05:09:44.384Z,1162.00
2023-01-19T05:10:44.386Z,1154.00
2023-01-19T05:11:44.360Z,1154.00
2023-01-19T05:12:44.365Z,1159.00
2023-01-19T05:13:44.361Z,1152.00
2023-01-19T05:14:44.345Z,1157.00
2023-01-19T05:15:44.346Z,1144.00
2023-01-19T05:16:44.324Z,1164.00
2023-01-19T05:17:44.320Z,1141.00
2023-01-19T05:18:44.305Z,1163.00
2023-01-19T05:19:44.293Z,1158.00
2023-01-19T05:20:44.321Z,1147.00
2023-01-19T05:21:44.683Z,1146.00
2023-01-19T05:22:44.285Z,1145.00
2023-01-19T05:23:44.271Z,1148.00
2023-01-19T05:24:44.272Z,1147.00
2023-01-19T05:25:44.258Z,1144.00
2023-01-19T05:26:44.265Z,1145.00
2023-01-19T05:27:44.256Z,1164.00
2023-01-19T05:28:44.256Z,1151.00
2023-01-19T05:29:44.252Z,1156.00
2023-01-19T05:30:44.302Z,1152.00
2023-01-19T05:31:44.269Z,1143.00
2023-01-19T05:32:44.238Z,1154.00
2023-01-19T05:33:44.254Z,1147.00
2023-01-19T05:34:44.231Z,1159.00
2023-01-19T05:35:44.234Z,1156.00
2023-01-19T05:36:44.234Z,1139.00
2023-01-19T05:37:44.225Z,1157.00
2023-01-19T05:38:44.230Z,1148.00
2023-01-19T05:39:44.202Z,1142.00
2023-01-19T05:40:44.227Z,1146.00
2023-01-19T05:41:44.202Z,1139.00
2023-01-19T05:42:44.204Z,1156.00
2023-01-19T05:43:44.200Z,1167.00
2023-01-19T05:44:44.207Z,1154.00
2023-01-19T05:45:44.178Z,1163.00
2023-01-19T05:46:44.293Z,1150.00
2023-01-19T05:47:44.175Z,1145.00
2023-01-19T05:48:44.181Z,1145.00
2023-01-19T05:49:44.164Z,1139.00
2023-01-19T05:50:44.155Z,1145.00
2023-01-19T05:51:44.165Z,1151.00
2023-01-19T05:52:44.162Z,1137.00
2023-01-19T05:53:44.158Z,1137.00
2023-01-19T05:54:44.137Z,1142.00
2023-01-19T05:55:44.117Z,1139.00
2023-01-19T05:56:44.119Z,1160.00
2023-01-19T05:57:44.133Z,1161.00
2023-01-19T05:58:44.107Z,1159.00
2023-01-19T05:59:44.100Z,1147.00
2023-01-19T06:00:44.099Z,1148.00
2023-01-19T06:01:44.134Z,1150.00
2023-01-19T06:02:44.231Z,1155.00
2023-01-19T06:03:44.095Z,1156.00
2023-01-19T06:04:44.105Z,1146.00
2023-01-19T06:05:44.084Z,1142.00
2023-01-19T06:06:44.083Z,1155.00
2023-01-19T06:07:44.091Z,1152.00
2023-01-19T06:08:44.070Z,1163.00
2023-01-19T06:09:44.075Z,1148.00
2023-01-19T06:10:44.076Z,1137.00
2023-01-19T06:11:44.071Z,1136.00
2023-01-19T06:12:44.056Z,1138.00
2023-01-19T06:13:44.045Z,1148.00
2023-01-19T06:14:44.045Z,1147.00
2023-01-19T06:15:44.032Z,1151.00
2023-01-19T06:16:44.119Z,1147.00
2023-01-19T06:17:44.026Z,1138.00
2023-01-19T06:18:44.051Z,1149.00
2023-01-19T06:19:44.020Z,1159.00
2023-01-19T06:20:44.011Z,1135.00
2023-01-19T06:21:44.025Z,1138.00
2023-01-19T06:22:44.013Z,1139.00
2023-01-19T06:23:44.010Z,1140.00
2023-01-19T06:24:44.011Z,1140.00
2023-01-19T06:25:44.012Z,1146.00
2023-01-19T06:26:44.019Z,1132.00
2023-01-19T06:27:44.017Z,1153.00
2023-01-19T06:28:44.009Z,1140.00
2023-01-19T06:29:44.004Z,1137.00
2023-01-19T06:30:44.071Z,1144.00
2023-01-19T06:31:44.127Z,1150.00
2023-01-19T06:32:44.025Z,1145.00
2023-01-19T06:33:44.018Z,1141.00
2023-01-19T06:34:44.067Z,1140.00
2023-01-19T06:35:44.005Z,1148.00
2023-01-19T06:36:43.990Z,1162.00
2023-01-19T06:37:44.012Z,1194.00
2023-01-19T06:38:44.006Z,1178.00
2023-01-19T06:39:43.990Z,1205.00
2023-01-19T06:40:44.070Z,1232.00
2023-01-19T06:41:43.987Z,1227.00
2023-01-19T06:42:44.044Z,1210.00
2023-01-19T06:43:43.989Z,1238.00
2023-01-19T06:44:43.992Z,1233.00
2023-01-19T06:45:45.920Z,1243.00
2023-01-19T06:46:44.008Z,1253.00
2023-01-19T06:47:43.995Z,1286.00
2023-01-19T06:48:43.981Z,1357.00
2023-01-19T06:49:43.972Z,1364.00
2023-01-19T06:50:43.967Z,1355.00
2023-01-19T06:51:43.962Z,1376.00
2023-01-19T06:52:43.961Z,1394.00
2023-01-19T06:53:43.954Z,1432.00
2023-01-19T06:54:43.952Z,1454.00
2023-01-19T06:55:44.052Z,1460.00
2023-01-19T06:56:43.955Z,1481.00
2023-01-19T06:57:43.963Z,1483.00
2023-01-19T06:58:43.939Z,1488.00
2023-01-19T06:59:43.935Z,1502.00
2023-01-19T07:00:43.980Z,1515.00
2023-01-19T07:01:44.020Z,1560.00
2023-01-19T07:02:43.972Z,1570.00
2023-01-19T07:03:46.149Z,1573.00
2023-01-19T07:04:43.914Z,1570.00
2023-01-19T07:05:43.900Z,1555.00
2023-01-19T07:06:43.911Z,1548.00
2023-01-19T07:07:43.892Z,1528.00
2023-01-19T07:08:43.871Z,1441.00
2023-01-19T07:09:43.877Z,1332.00
2023-01-19T07:11:24.922Z,1219.00
2023-01-19T07:11:44.863Z,1224.00
2023-01-19T07:12:43.883Z,1241.00
2023-01-19T07:13:43.828Z,1280.00
2023-01-19T07:14:43.819Z,1351.00
2023-01-19T07:15:43.811Z,1421.00
2023-01-19T07:16:43.878Z,1227.00
2023-01-19T07:17:43.784Z,1248.00
2023-01-19T07:18:43.772Z,1271.00
2023-01-19T07:19:43.841Z,1299.00
2023-01-19T07:20:43.839Z,1324.00
2023-01-19T07:21:43.755Z,1280.00
2023-01-19T07:22:43.774Z,1260.00
2023-01-19T07:23:43.742Z,1246.00
2023-01-19T07:24:43.728Z,1209.00
2023-01-19T07:25:43.770Z,1210.00
2023-01-19T07:26:43.743Z,1206.00
2023-01-19T07:27:43.712Z,1183.00
2023-01-19T07:28:43.700Z,1196.00
2023-01-19T07:29:43.743Z,1206.00
2023-01-19T07:30:43.792Z,1140.00
2023-01-19T07:31:43.816Z,1116.00
2023-01-19T07:32:43.702Z,1102.00
2023-01-19T07:33:43.684Z,1065.00
2023-01-19T07:34:43.652Z,1061.00
2023-01-19T07:35:43.643Z,1067.00
2023-01-19T07:36:43.646Z,1054.00
2023-01-19T07:37:43.942Z,1054.00
2023-01-19T07:38:43.623Z,1015.00
2023-01-19T07:39:43.623Z,994.00
2023-01-19T07:40:44.613Z,897.00
2023-01-19T07:41:43.594Z,901.00
2023-01-19T07:42:43.587Z,923.00
2023-01-19T07:43:43.604Z,515.00
2023-01-19T07:44:43.578Z,400.00
2023-01-19T07:45:43.621Z,400.00
2023-01-19T07:46:43.571Z,400.00
2023-01-19T07:47:43.585Z,503.00
2023-01-19T07:48:43.571Z,535.00
2023-01-19T07:49:43.568Z,603.00
2023-01-19T07:50:43.568Z,655.00
2023-01-19T07:51:43.595Z,754.00
2023-01-19T07:52:43.562Z,776.00
2023-01-19T07:53:43.577Z,781.00
2023-01-19T07:54:43.573Z,782.00
2023-01-19T07:55:43.569Z,785.00
2023-01-19T07:56:43.546Z,805.00
2023-01-19T07:57:43.546Z,785.00
2023-01-19T07:58:43.641Z,794.00
2023-01-19T07:59:43.533Z,822.00
2023-01-19T08:00:43.535Z,786.00
2023-01-19T08:01:43.685Z,804.00
2023-01-19T08:02:44.548Z,835.00
2023-01-19T08:03:43.550Z,874.00
2023-01-19T08:04:43.511Z,921.00
2023-01-19T08:05:43.478Z,919.00
2023-01-19T08:06:43.548Z,915.00
2023-01-19T08:07:43.467Z,952.00
2023-01-19T08:08:43.479Z,953.00
2023-01-19T08:09:43.479Z,992.00
2023-01-19T08:10:43.443Z,974.00
2023-01-19T08:11:43.434Z,967.00
2023-01-19T08:12:43.424Z,990.00
2023-01-19T08:13:43.438Z,949.00
2023-01-19T08:14:43.408Z,889.00
2023-01-19T08:15:43.462Z,965.00
2023-01-19T08:16:43.388Z,959.00
2023-01-19T08:17:43.397Z,990.00
2023-01-19T08:18:43.374Z,1002.00
2023-01-19T08:19:43.358Z,1014.00
2023-01-19T08:20:43.381Z,975.00
2023-01-19T08:21:43.335Z,992.00
2023-01-19T08:22:43.364Z,961.00
2023-01-19T08:23:43.392Z,958.00
2023-01-19T08:24:43.301Z,956.00
2023-01-19T08:25:43.299Z,981.00
2023-01-19T08:26:43.270Z,969.00
2023-01-19T08:27:43.250Z,958.00
2023-01-19T08:28:43.240Z,967.00
2023-01-19T08:29:43.243Z,959.00
2023-01-19T08:30:43.293Z,951.00
2023-01-19T08:31:43.312Z,901.00
2023-01-19T08:32:43.320Z,943.00
2023-01-19T08:33:43.187Z,968.00
2023-01-19T08:34:43.191Z,992.00
2023-01-19T08:35:43.157Z,939.00
2023-01-19T08:36:43.156Z,955.00
2023-01-19T08:37:43.160Z,933.00
2023-01-19T08:38:43.106Z,962.00
2023-01-19T08:39:43.105Z,965.00
2023-01-19T08:40:43.091Z,985.00
2023-01-19T08:41:43.088Z,918.00
2023-01-19T08:42:43.086Z,896.00
2023-01-19T08:43:43.064Z,877.00
2023-01-19T08:44:57.186Z,913.00
2023-01-19T08:45:44.042Z,915.00
2023-01-19T08:46:43.178Z,933.00
2023-01-19T08:47:43.153Z,963.00
2023-01-19T08:48:43.003Z,997.00
2023-01-19T08:49:43.000Z,1025.00
2023-01-19T08:50:42.985Z,1013.00
2023-01-19T08:51:42.982Z,1014.00
2023-01-19T08:52:42.989Z,1008.00
2023-01-19T08:53:42.951Z,1006.00
2023-01-19T08:54:42.933Z,965.00
2023-01-19T08:55:42.932Z,918.00
2023-01-19T08:56:42.945Z,938.00
2023-01-19T08:57:42.915Z,947.00
2023-01-19T08:58:42.906Z,937.00
2023-01-19T08:59:42.901Z,912.00
2023-01-19T09:00:42.885Z,890.00
2023-01-19T09:01:43.032Z,885.00
2023-01-19T09:02:42.916Z,853.00
2023-01-19T09:03:42.865Z,857.00
2023-01-19T09:04:43.055Z,857.00
2023-01-19T09:05:42.851Z,806.00
2023-01-19T09:06:42.827Z,818.00
2023-01-19T09:07:42.820Z,782.00
2023-01-19T09:08:42.833Z,817.00
2023-01-19T09:09:42.807Z,795.00
2023-01-19T09:10:42.762Z,773.00
2023-01-19T09:11:42.754Z,772.00
2023-01-19T09:12:43.755Z,753.00
2023-01-19T09:13:42.743Z,778.00
2023-01-19T09:14:42.762Z,747.00
2023-01-19T09:15:42.745Z,768.00
2023-01-19T09:16:42.692Z,720.00
2023-01-19T09:17:42.687Z,766.00
2023-01-19T09:20:30.642Z,500.00
2023-01-19T09:21:30.617Z,500.00
2023-01-19T09:22:30.595Z,500.00
2023-01-19T09:23:30.638Z,500.00
2023-01-19T09:24:30.574Z,500.00
2023-01-19T09:25:30.512Z,500.00
2023-01-19T09:26:32.948Z,502.00
2023-01-19T09:27:30.628Z,486.00
2023-01-19T09:28:30.588Z,502.00
2023-01-19T09:29:30.568Z,500.00
2023-01-19T09:30:30.582Z,491.00
2023-01-19T09:31:30.693Z,492.00
2023-01-19T09:32:33.310Z,502.00
2023-01-19T09:35:33.354Z,503.00
2023-01-19T09:36:30.459Z,503.00
2023-01-19T09:37:30.379Z,505.00
2023-01-19T09:38:30.359Z,507.00
2023-01-19T09:39:30.386Z,517.00
2023-01-19T09:40:30.338Z,542.00
2023-01-19T09:41:30.287Z,554.00
2023-01-19T09:42:30.269Z,556.00
2023-01-19T09:43:30.238Z,567.00
2023-01-19T09:44:30.213Z,559.00
2023-01-19T09:45:30.199Z,559.00
2023-01-19T09:46:30.275Z,576.00
2023-01-19T09:47:30.166Z,571.00
2023-01-19T09:48:30.151Z,579.00
2023-01-19T09:49:30.110Z,579.00
2023-01-19T09:50:30.117Z,581.00
2023-01-19T09:51:30.073Z,585.00
2023-01-19T09:52:30.054Z,594.00
2023-01-19T09:53:30.096Z,588.00
2023-01-19T09:54:30.005Z,592.00
2023-01-19T09:55:29.981Z,589.00
2023-01-19T09:56:29.948Z,587.00
2023-01-19T09:57:29.932Z,580.00
2023-01-19T09:58:29.904Z,574.00
2023-01-19T09:59:29.900Z,571.00
2023-01-19T10:00:29.877Z,553.00
2023-01-19T10:01:29.926Z,549.00
2023-01-19T10:02:29.823Z,555.00
2023-01-19T10:03:29.799Z,540.00
2023-01-19T10:04:29.812Z,529.00
2023-01-19T10:05:29.753Z,509.00
2023-01-19T10:06:29.745Z,502.00
2023-01-19T10:07:29.686Z,519.00
2023-01-19T10:08:29.705Z,521.00
2023-01-19T10:09:29.664Z,516.00
2023-01-19T10:10:29.655Z,512.00
2023-01-19T10:11:38.093Z,511.00
2023-01-19T10:12:30.577Z,512.00
2023-01-19T10:13:29.556Z,508.00
2023-01-19T10:14:29.530Z,490.00
2023-01-19T10:15:29.503Z,497.00
2023-01-19T10:16:29.473Z,488.00
2023-01-19T10:17:29.426Z,510.00
2023-01-19T10:18:29.402Z,521.00
2023-01-19T10:19:29.410Z,516.00
2023-01-19T10:20:29.386Z,500.00
2023-01-19T10:21:29.375Z,509.00
2023-01-19T10:22:29.313Z,502.00
2023-01-19T10:23:29.265Z,509.00
2023-01-19T10:24:29.250Z,503.00
2023-01-19T10:25:29.248Z,515.00
2023-01-19T10:26:29.176Z,500.00
2023-01-19T10:27:29.152Z,513.00
2023-01-19T10:28:29.131Z,505.00
2023-01-19T10:29:29.105Z,509.00
2023-01-19T10:30:29.120Z,507.00
2023-01-19T10:31:29.129Z,523.00
2023-01-19T10:32:29.004Z,530.00
2023-01-19T10:33:28.988Z,528.00
2023-01-19T10:34:28.946Z,534.00
2023-01-19T10:35:28.916Z,547.00
2023-01-19T10:36:28.919Z,554.00
2023-01-19T13:12:24.127Z,542.00
2023-01-19T13:13:24.086Z,538.00
2023-01-19T13:14:24.037Z,543.00
2023-01-19T13:15:24.011Z,527.00
2023-01-19T13:16:23.972Z,522.00
2023-01-19T13:17:23.959Z,513.00
2023-01-19T13:18:23.905Z,520.00
2023-01-19T13:19:23.869Z,516.00
2023-01-19T13:20:23.846Z,519.00
2023-01-19T13:21:23.947Z,519.00
2023-01-19T13:22:23.777Z,520.00
2023-01-19T13:23:23.778Z,500.00
2023-01-19T13:24:23.726Z,529.00
2023-01-19T13:25:23.714Z,537.00
2023-01-19T13:26:23.687Z,553.00
2023-01-19T13:27:23.645Z,567.00
2023-01-19T13:28:23.611Z,573.00
2023-01-19T13:29:23.577Z,583.00
2023-01-19T13:30:23.607Z,583.00
2023-01-19T13:31:23.543Z,581.00
2023-01-19T13:32:23.497Z,586.00
2023-01-19T13:33:23.462Z,588.00
2023-01-19T13:34:23.421Z,600.00
2023-01-19T13:35:23.433Z,599.00
2023-01-19T13:36:23.353Z,613.00
2023-01-19T13:37:23.332Z,624.00
2023-01-19T13:38:23.299Z,625.00
2023-01-19T13:39:23.285Z,626.00
2023-01-19T13:40:23.265Z,628.00
2023-01-19T13:41:23.225Z,631.00
2023-01-19T13:42:23.197Z,626.00
2023-01-19T13:43:23.200Z,629.00
2023-01-19T13:44:23.137Z,635.00
2023-01-19T13:45:23.122Z,641.00
2023-01-19T13:46:23.168Z,654.00
2023-01-19T13:47:23.056Z,664.00
2023-01-19T13:48:23.074Z,665.00
2023-01-19T13:49:23.022Z,664.00
2023-01-19T13:50:22.970Z,664.00
2023-01-19T13:51:22.930Z,663.00
2023-01-19T13:52:22.894Z,659.00
2023-01-19T13:53:22.872Z,694.00
2023-01-19T13:54:22.946Z,732.00
2023-01-19T13:55:22.844Z,679.00
2023-01-19T13:56:22.807Z,663.00
2023-01-19T13:57:22.824Z,658.00
2023-01-19T13:58:22.805Z,662.00
2023-01-19T13:59:22.771Z,652.00
2023-01-19T14:00:22.665Z,719.00
2023-01-19T14:01:23.114Z,711.00
2023-01-19T14:02:22.696Z,680.00
2023-01-19T14:03:22.602Z,686.00
2023-01-19T14:04:22.549Z,666.00
2023-01-19T14:05:22.541Z,676.00
2023-01-19T14:06:22.532Z,699.00
2023-01-19T14:07:22.472Z,677.00
2023-01-19T14:08:22.424Z,694.00
2023-01-19T14:09:22.404Z,700.00
2023-01-19T14:10:22.408Z,714.00
2023-01-19T14:11:22.355Z,724.00
2023-01-19T14:12:22.310Z,721.00
2023-01-19T14:13:22.319Z,720.00
2023-01-19T14:14:22.260Z,742.00
2023-01-19T14:15:22.374Z,748.00
2023-01-19T14:16:22.205Z,722.00
2023-01-19T14:17:22.176Z,748.00
2023-01-19T14:18:22.137Z,751.00
2023-01-19T14:19:22.170Z,757.00
2023-01-19T14:20:22.107Z,739.00
2023-01-19T14:21:22.067Z,669.00
2023-01-19T14:22:22.049Z,678.00
2023-01-19T14:23:22.021Z,643.00
2023-01-19T14:24:21.986Z,631.00
2023-01-19T14:25:21.988Z,631.00
2023-01-19T14:26:21.976Z,625.00
2023-01-19T14:27:21.926Z,617.00
2023-01-19T14:28:21.937Z,619.00
2023-01-19T14:29:21.882Z,619.00
2023-01-19T14:30:21.880Z,622.00
2023-01-19T14:31:21.888Z,620.00
2023-01-19T14:32:21.814Z,623.00
2023-01-19T14:33:21.819Z,612.00
2023-01-19T14:34:21.769Z,603.00
2023-01-19T14:35:21.736Z,599.00
2023-01-19T14:36:21.713Z,598.00
2023-01-19T14:37:21.694Z,581.00
2023-01-19T14:38:21.671Z,579.00
2023-01-19T14:39:21.659Z,569.00
2023-01-19T14:40:21.664Z,562.00
2023-01-19T14:41:21.586Z,562.00
2023-01-19T14:42:21.558Z,564.00
2023-01-19T14:43:21.526Z,566.00
2023-01-19T14:44:21.517Z,571.00
2023-01-19T14:45:21.483Z,580.00
2023-01-19T14:46:21.499Z,593.00
2023-01-19T14:47:21.432Z,588.00
2023-01-19T14:48:21.425Z,589.00
2023-01-19T14:49:21.395Z,606.00
2023-01-19T14:50:21.349Z,615.00
2023-01-19T14:51:21.331Z,624.00
2023-01-19T14:52:21.289Z,618.00
2023-01-19T14:53:21.276Z,629.00
2023-01-19T14:54:21.252Z,624.00
2023-01-19T14:55:21.214Z,639.00
2023-01-19T14:56:21.175Z,644.00
2023-01-19T14:57:21.139Z,639.00
2023-01-19T14:58:21.115Z,634.00
2023-01-19T14:59:21.109Z,650.00
2023-01-19T15:00:21.083Z,661.00
2023-01-19T15:01:21.161Z,653.00
2023-01-19T15:02:21.089Z,666.00
2023-01-19T15:03:22.208Z,665.00
2023-01-19T15:04:20.978Z,666.00
2023-01-19T15:05:20.971Z,670.00
2023-01-19T15:06:20.936Z,684.00
2023-01-19T15:07:20.935Z,700.00
2023-01-19T15:08:20.902Z,721.00
2023-01-19T15:09:20.837Z,666.00
2023-01-19T15:10:20.882Z,675.00
2023-01-19T15:11:20.798Z,688.00
2023-01-19T15:12:20.794Z,706.00
2023-01-19T15:13:20.741Z,747.00
2023-01-19T15:14:20.708Z,742.00
2023-01-19T15:15:20.697Z,755.00
2023-01-19T15:16:20.723Z,756.00
2023-01-19T15:17:20.627Z,756.00
2023-01-19T15:18:20.601Z,753.00
2023-01-19T15:19:20.580Z,762.00
2023-01-19T15:20:20.542Z,787.00
2023-01-19T15:21:20.516Z,790.00
2023-01-19T15:22:20.486Z,792.00
2023-01-19T15:23:20.464Z,807.00
2023-01-19T15:24:20.468Z,793.00
2023-01-19T15:25:20.440Z,793.00
2023-01-19T15:26:20.401Z,796.00
2023-01-19T15:27:20.371Z,815.00
2023-01-19T15:28:20.362Z,799.00
2023-01-19T15:29:20.324Z,799.00
2023-01-19T15:30:20.311Z,799.00
2023-01-19T15:31:20.401Z,812.00
2023-01-19T15:32:20.255Z,805.00
2023-01-19T15:33:20.230Z,806.00
2023-01-19T15:34:20.205Z,824.00
2023-01-19T15:35:20.179Z,818.00
2023-01-19T15:36:20.150Z,818.00
2023-01-19T15:37:20.132Z,821.00
2023-01-19T15:38:20.152Z,822.00
2023-01-19T15:39:20.089Z,830.00
2023-01-19T15:40:20.066Z,822.00
2023-01-19T15:41:22.954Z,831.00
2023-01-19T15:42:20.025Z,853.00
2023-01-19T15:43:19.993Z,835.00
2023-01-19T15:44:19.968Z,842.00
2023-01-19T15:45:19.959Z,830.00
2023-01-19T15:46:19.938Z,833.00
2023-01-19T15:47:19.915Z,839.00
2023-01-19T15:48:19.879Z,838.00
2023-01-19T15:49:19.865Z,831.00
2023-01-19T15:50:19.849Z,839.00
2023-01-19T15:51:19.800Z,845.00
2023-01-19T15:52:19.789Z,842.00
2023-01-19T15:53:19.795Z,838.00
2023-01-19T15:54:19.734Z,849.00
2023-01-19T15:55:19.703Z,843.00
2023-01-19T15:56:19.685Z,858.00
2023-01-19T15:57:19.670Z,847.00
2023-01-19T15:58:19.639Z,850.00
2023-01-19T15:59:19.647Z,841.00
2023-01-19T16:00:19.607Z,841.00
2023-01-19T16:01:19.748Z,857.00
2023-01-19T16:02:19.741Z,843.00
2023-01-19T16:03:19.561Z,851.00
2023-01-19T16:04:19.535Z,861.00
2023-01-19T16:05:19.495Z,853.00
2023-01-19T16:06:19.469Z,851.00
2023-01-19T16:07:19.505Z,867.00
2023-01-19T16:08:19.410Z,869.00
2023-01-19T16:09:19.397Z,855.00
2023-01-19T16:10:19.389Z,855.00
2023-01-19T16:11:19.353Z,854.00
2023-01-19T16:12:19.331Z,854.00
2023-01-19T16:13:19.310Z,869.00
2023-01-19T16:14:19.311Z,845.00
2023-01-19T16:15:19.279Z,858.00
2023-01-19T16:16:19.318Z,869.00
2023-01-19T16:17:19.217Z,858.00
2023-01-19T16:18:19.205Z,862.00
2023-01-19T16:19:19.180Z,853.00
2023-01-19T16:20:19.215Z,856.00
2023-01-19T16:21:19.159Z,849.00
2023-01-19T16:22:19.122Z,850.00
2023-01-19T16:23:19.120Z,854.00
2023-01-19T16:24:19.076Z,854.00
2023-01-19T16:25:19.061Z,865.00
2023-01-19T16:26:19.036Z,870.00
2023-01-19T16:27:18.991Z,868.00
2023-01-19T16:28:18.977Z,876.00
2023-01-19T16:29:18.957Z,864.00
2023-01-19T16:30:18.976Z,863.00
2023-01-19T16:31:18.942Z,864.00
2023-01-19T16:32:18.899Z,868.00
2023-01-19T16:33:18.877Z,866.00
2023-01-19T19:46:14.474Z,819.00
2023-01-19T19:47:14.408Z,827.00
2023-01-19T19:52:14.320Z,831.00
2023-01-19T20:42:13.466Z,807.00
2023-01-19T21:22:12.720Z,805.00
2023-01-19T21:39:12.373Z,804.00
2023-01-19T21:40:12.329Z,799.00
2023-01-19T21:41:12.317Z,806.00
2023-01-19T21:42:12.286Z,807.00
2023-01-19T21:43:12.253Z,807.00
2023-01-19T21:44:12.243Z,807.00
2023-01-19T21:45:12.474Z,807.00
2023-01-19T21:46:12.217Z,806.00
2023-01-19T21:47:12.170Z,811.00
2023-01-19T21:48:12.138Z,807.00
2023-01-19T21:49:12.119Z,802.00
2023-01-19T21:50:12.104Z,794.00
2023-01-19T21:51:12.058Z,797.00
2023-01-19T21:52:12.038Z,799.00
2023-01-19T21:53:12.025Z,809.00
2023-01-19T21:54:11.995Z,803.00
2023-01-19T21:55:12.383Z,813.00
2023-01-19T21:56:11.960Z,809.00
2023-01-19T21:57:11.956Z,802.00
2023-01-19T21:58:11.948Z,808.00
2023-01-19T21:59:11.901Z,810.00
2023-01-19T22:00:11.894Z,806.00
2023-01-19T22:01:11.963Z,822.00
2023-01-19T22:02:11.951Z,794.00
2023-01-19T22:03:11.847Z,795.00
2023-01-19T22:04:11.804Z,803.00
2023-01-19T22:05:12.160Z,804.00
2023-01-19T22:06:11.764Z,805.00
2023-01-19T22:07:11.725Z,805.00
2023-01-19T22:08:11.704Z,805.00
2023-01-19T22:09:11.704Z,807.00
2023-01-19T22:10:11.665Z,807.00
2023-01-19T22:11:11.662Z,809.00
2023-01-19T22:12:11.614Z,806.00
2023-01-19T22:13:11.632Z,819.00
2023-01-19T22:14:11.567Z,789.00
2023-01-19T22:15:11.876Z,802.00
2023-01-19T22:16:11.622Z,811.00
2023-01-19T22:17:11.510Z,821.00
2023-01-19T22:18:11.509Z,799.00
2023-01-19T22:19:11.459Z,795.00
2023-01-19T22:20:11.441Z,804.00
2023-01-19T22:21:11.431Z,813.00
2023-01-19T22:22:11.385Z,800.00
2023-01-19T22:23:11.357Z,803.00
2023-01-19T22:24:11.342Z,794.00
2023-01-19T22:25:11.506Z,809.00
2023-01-19T22:26:11.306Z,809.00
2023-01-19T22:27:11.269Z,807.00
2023-01-19T22:28:11.257Z,806.00
2023-01-19T22:29:11.285Z,812.00
2023-01-19T22:30:11.202Z,805.00
2023-01-19T22:31:11.289Z,801.00
2023-01-19T22:32:11.164Z,799.00
2023-01-19T22:33:11.137Z,799.00
2023-01-19T22:34:11.122Z,816.00
2023-01-19T22:35:11.366Z,786.00
2023-01-19T22:36:11.095Z,806.00
2023-01-19T22:37:11.076Z,812.00
2023-01-19T22:38:11.044Z,794.00